ROTAER D-AMDT 51/21 Ver mudanças

Patos de Minas ( SNPD ) / PATOS DE MINAS, MG 18 40 20S/046 29 29W
AD PUB UTC-3 VFR L21 , L26 851 (2792)

09 - L12 - ( 1700x30 ASPH 39/F/A/Y/T L14 , L15 ) - L12 - 27

SBBS (CINDACTA 1)
MET - MET CIVIL –

[1]

RMK -

HORÁRIO DE FUNCIONAMENTO
  1. OPS HN O/R pelos TEL: (34) 38229717
OBSTÁCULO DE AERÓDROMO
  1. OBS OBST (Morro) NEG LGTD COORD 183920.67S/0462744.20W ELEV 920M.
  2. OBS OBST (Morro) NEG LGTD COORD 183815.24S/0462703.68W ELEV 980M.
  3. OBS OBST (Morro) NEG LGTD COORD 183810.66S/0462659.04W ELEV 1000M.
  4. OBS OBST (Morro) NEG LGTD COORD 183805.58S/0462653.89W ELEV 1020M.
OUTRAS LUZES, FONTE SECUNDÁRIA DE ENERGIA
  1. Para agendamento de balizamento luminoso deverá ser feito pelos TEL (34) 3822-9717 ou (34) 99694-7315 com no mínimo 02 (duas) horas BFR LDG.
COMPL -
  • [1] ERAA (Estacao de Radiodifusao Automatica de Aerodrómo) FREQ 127.800MHZ
TEMP (0)

Suplementos AIP (0)

NOTAM (0)

Nascer/Por do Sol

09:29

20:36


METAR

252000Z AUTO 10008KT CAVOK 22/12 Q1023=

TAF


OPEA/Obstáculos


Cartas (0)


Rotas Preferenciais (0)